Terminal Aerodrome Forecast
Issued by NWS

Home | Current Version | Previous Version | Text Only | Print | Product List | Glossary On
Versions: 1 2 3 4 5 6 7 8 9 10 11 12 13 14 15 16 17 18 19 20 21 22 23 24 25 26 27 28 29 30 31 32 33 34 35 36 37 38 39 40 41 42
000
FTUS45 KBOU 291335 AAB
TAFBJC
TAF AMD
KBJC 291335Z 2914/3012 02012KT 5SM -SN BR SCT010 BKN030 OVC050
      TEMPO 2914/2915 01012G22KT 2SM -SHSN BKN010
     FM291500 01012G22KT 1SM -SN BR BKN006 OVC014
     FM291800 03012KT 3/4SM -SN BR OVC008
      TEMPO 2920/2924 1/2SM SN FZFG OVC004
     FM300100 03010KT 1SM -SN BR BKN005 OVC010
      TEMPO 3001/3004 1/2SM -SN FZFG OVC004
     FM300500 04008KT 3SM -SN BR SCT004 OVC008=

USA.gov is the U.S. government's official web portal to all federal, state and local government web resources and services.